sensor_id;sensor_type;location;lat;lon;timestamp;temperature;humidity
13686;DHT22;6915;48.296;8.874;2022-07-10T00:00:16;17.00;1.00
13686;DHT22;6915;48.296;8.874;2022-07-10T00:02:47;17.00;1.00
13686;DHT22;6915;48.296;8.874;2022-07-10T00:05:14;16.90;1.00
13686;DHT22;6915;48.296;8.874;2022-07-10T00:07:41;16.80;1.00
13686;DHT22;6915;48.296;8.874;2022-07-10T00:10:08;16.70;1.00
13686;DHT22;6915;48.296;8.874;2022-07-10T00:12:36;16.70;1.00
13686;DHT22;6915;48.296;8.874;2022-07-10T00:15:04;16.70;1.00
13686;DHT22;6915;48.296;8.874;2022-07-10T00:17:31;16.70;1.00
13686;DHT22;6915;48.296;8.874;2022-07-10T00:19:59;16.60;1.00
13686;DHT22;6915;48.296;8.874;2022-07-10T00:22:26;16.60;1.00
13686;DHT22;6915;48.296;8.874;2022-07-10T00:24:53;16.60;1.00
13686;DHT22;6915;48.296;8.874;2022-07-10T00:27:20;16.60;1.00
13686;DHT22;6915;48.296;8.874;2022-07-10T00:29:47;16.60;1.00
13686;DHT22;6915;48.296;8.874;2022-07-10T00:32:14;16.60;1.00
13686;DHT22;6915;48.296;8.874;2022-07-10T00:34:41;16.60;1.00
13686;DHT22;6915;48.296;8.874;2022-07-10T00:37:09;16.60;1.00
13686;DHT22;6915;48.296;8.874;2022-07-10T00:39:36;16.60;1.00
13686;DHT22;6915;48.296;8.874;2022-07-10T00:42:07;16.50;1.00
13686;DHT22;6915;48.296;8.874;2022-07-10T00:44:35;16.40;1.00
13686;DHT22;6915;48.296;8.874;2022-07-10T00:47:03;16.40;1.00
13686;DHT22;6915;48.296;8.874;2022-07-10T00:49:29;16.30;1.00
13686;DHT22;6915;48.296;8.874;2022-07-10T00:51:58;16.30;37.20
13686;DHT22;6915;48.296;8.874;2022-07-10T00:54:27;16.20;18.60
13686;DHT22;6915;48.296;8.874;2022-07-10T00:56:55;16.20;8.90
13686;DHT22;6915;48.296;8.874;2022-07-10T00:59:23;16.20;1.00
13686;DHT22;6915;48.296;8.874;2022-07-10T01:01:51;16.10;1.00
13686;DHT22;6915;48.296;8.874;2022-07-10T01:04:19;16.00;1.00
13686;DHT22;6915;48.296;8.874;2022-07-10T01:06:46;16.00;1.00
13686;DHT22;6915;48.296;8.874;2022-07-10T01:09:14;16.00;1.00
13686;DHT22;6915;48.296;8.874;2022-07-10T01:11:42;15.90;10.30
13686;DHT22;6915;48.296;8.874;2022-07-10T01:14:10;15.80;2.00
13686;DHT22;6915;48.296;8.874;2022-07-10T01:16:37;15.70;1.00
13686;DHT22;6915;48.296;8.874;2022-07-10T01:19:04;15.60;14.40
13686;DHT22;6915;48.296;8.874;2022-07-10T01:21:35;15.50;67.20
13686;DHT22;6915;48.296;8.874;2022-07-10T01:24:05;15.40;99.90
13686;DHT22;6915;48.296;8.874;2022-07-10T01:26:32;15.30;99.90
13686;DHT22;6915;48.296;8.874;2022-07-10T01:29:06;15.20;99.90
13686;DHT22;6915;48.296;8.874;2022-07-10T01:31:33;15.10;74.30
13686;DHT22;6915;48.296;8.874;2022-07-10T01:34:01;15.00;99.90
13686;DHT22;6915;48.296;8.874;2022-07-10T01:36:29;14.90;99.90
13686;DHT22;6915;48.296;8.874;2022-07-10T01:38:58;14.90;99.90
13686;DHT22;6915;48.296;8.874;2022-07-10T01:41:26;14.90;99.90
13686;DHT22;6915;48.296;8.874;2022-07-10T01:43:53;14.70;99.90
13686;DHT22;6915;48.296;8.874;2022-07-10T01:46:20;14.70;99.90
13686;DHT22;6915;48.296;8.874;2022-07-10T01:48:47;14.50;99.90
13686;DHT22;6915;48.296;8.874;2022-07-10T01:51:14;14.30;99.90
13686;DHT22;6915;48.296;8.874;2022-07-10T01:53:42;14.20;99.90
13686;DHT22;6915;48.296;8.874;2022-07-10T01:56:12;14.00;99.90
13686;DHT22;6915;48.296;8.874;2022-07-10T01:58:39;14.00;99.90
13686;DHT22;6915;48.296;8.874;2022-07-10T02:01:08;14.00;99.90
13686;DHT22;6915;48.296;8.874;2022-07-10T02:03:35;14.00;99.90
13686;DHT22;6915;48.296;8.874;2022-07-10T02:06:20;14.10;99.90
13686;DHT22;6915;48.296;8.874;2022-07-10T02:08:47;14.10;99.90
13686;DHT22;6915;48.296;8.874;2022-07-10T02:11:15;14.10;99.90
13686;DHT22;6915;48.296;8.874;2022-07-10T02:13:42;14.00;99.90
13686;DHT22;6915;48.296;8.874;2022-07-10T02:16:09;14.00;99.90
13686;DHT22;6915;48.296;8.874;2022-07-10T02:18:36;13.90;99.90
13686;DHT22;6915;48.296;8.874;2022-07-10T02:21:03;13.90;99.90
13686;DHT22;6915;48.296;8.874;2022-07-10T02:23:32;13.90;99.90
13686;DHT22;6915;48.296;8.874;2022-07-10T02:25:59;13.80;99.90
13686;DHT22;6915;48.296;8.874;2022-07-10T02:28:28;13.80;99.90
13686;DHT22;6915;48.296;8.874;2022-07-10T02:30:55;13.70;99.90
13686;DHT22;6915;48.296;8.874;2022-07-10T02:33:22;13.60;99.90
13686;DHT22;6915;48.296;8.874;2022-07-10T02:35:49;13.40;99.90
13686;DHT22;6915;48.296;8.874;2022-07-10T02:38:16;13.40;99.90
13686;DHT22;6915;48.296;8.874;2022-07-10T02:40:42;13.40;99.90
13686;DHT22;6915;48.296;8.874;2022-07-10T02:43:09;13.50;99.90
13686;DHT22;6915;48.296;8.874;2022-07-10T02:45:40;13.50;99.90
13686;DHT22;6915;48.296;8.874;2022-07-10T02:48:07;13.40;99.90
13686;DHT22;6915;48.296;8.874;2022-07-10T02:50:35;13.30;99.90
13686;DHT22;6915;48.296;8.874;2022-07-10T02:53:02;13.30;99.90
13686;DHT22;6915;48.296;8.874;2022-07-10T02:55:29;13.20;99.90
13686;DHT22;6915;48.296;8.874;2022-07-10T02:57:57;13.20;99.90
13686;DHT22;6915;48.296;8.874;2022-07-10T03:00:25;13.20;99.90
13686;DHT22;6915;48.296;8.874;2022-07-10T03:02:53;13.30;99.90
13686;DHT22;6915;48.296;8.874;2022-07-10T03:05:20;13.30;99.90
13686;DHT22;6915;48.296;8.874;2022-07-10T03:07:47;13.30;99.90
13686;DHT22;6915;48.296;8.874;2022-07-10T03:10:14;13.20;99.90
13686;DHT22;6915;48.296;8.874;2022-07-10T03:12:41;13.10;99.90
13686;DHT22;6915;48.296;8.874;2022-07-10T03:15:09;13.10;99.90
13686;DHT22;6915;48.296;8.874;2022-07-10T03:17:36;13.10;99.90
13686;DHT22;6915;48.296;8.874;2022-07-10T03:20:05;13.10;99.90
13686;DHT22;6915;48.296;8.874;2022-07-10T03:22:32;13.10;99.90
13686;DHT22;6915;48.296;8.874;2022-07-10T03:24:59;13.20;99.90
13686;DHT22;6915;48.296;8.874;2022-07-10T03:27:26;13.30;99.90
13686;DHT22;6915;48.296;8.874;2022-07-10T03:29:53;13.30;99.90
13686;DHT22;6915;48.296;8.874;2022-07-10T03:32:20;13.40;99.90
13686;DHT22;6915;48.296;8.874;2022-07-10T03:34:47;13.40;99.90
13686;DHT22;6915;48.296;8.874;2022-07-10T03:37:15;13.40;99.90
13686;DHT22;6915;48.296;8.874;2022-07-10T03:39:42;13.50;99.90
13686;DHT22;6915;48.296;8.874;2022-07-10T03:42:09;13.60;99.90
13686;DHT22;6915;48.296;8.874;2022-07-10T03:44:36;13.50;99.90
13686;DHT22;6915;48.296;8.874;2022-07-10T03:47:03;13.60;99.90
13686;DHT22;6915;48.296;8.874;2022-07-10T03:49:30;13.70;99.90
13686;DHT22;6915;48.296;8.874;2022-07-10T03:51:59;13.50;99.90
13686;DHT22;6915;48.296;8.874;2022-07-10T03:54:28;13.40;99.90
13686;DHT22;6915;48.296;8.874;2022-07-10T03:56:55;13.40;99.90
13686;DHT22;6915;48.296;8.874;2022-07-10T03:59:39;13.30;99.90
13686;DHT22;6915;48.296;8.874;2022-07-10T04:02:06;13.20;99.90
13686;DHT22;6915;48.296;8.874;2022-07-10T04:04:33;13.10;99.90
13686;DHT22;6915;48.296;8.874;2022-07-10T04:07:00;13.10;99.90
13686;DHT22;6915;48.296;8.874;2022-07-10T04:09:28;13.20;99.90
13686;DHT22;6915;48.296;8.874;2022-07-10T04:11:55;13.10;99.90
13686;DHT22;6915;48.296;8.874;2022-07-10T04:14:22;13.20;99.90
13686;DHT22;6915;48.296;8.874;2022-07-10T04:16:49;13.30;99.90
13686;DHT22;6915;48.296;8.874;2022-07-10T04:19:16;13.30;99.90
13686;DHT22;6915;48.296;8.874;2022-07-10T04:21:43;13.40;99.90
13686;DHT22;6915;48.296;8.874;2022-07-10T04:24:10;13.40;99.90
13686;DHT22;6915;48.296;8.874;2022-07-10T04:26:39;13.50;99.90
13686;DHT22;6915;48.296;8.874;2022-07-10T04:29:06;13.60;99.90
13686;DHT22;6915;48.296;8.874;2022-07-10T04:31:32;13.80;99.90
13686;DHT22;6915;48.296;8.874;2022-07-10T04:33:59;13.90;99.90
13686;DHT22;6915;48.296;8.874;2022-07-10T04:36:26;14.00;99.90
13686;DHT22;6915;48.296;8.874;2022-07-10T04:38:53;14.10;99.90
13686;DHT22;6915;48.296;8.874;2022-07-10T04:41:20;14.10;99.90
13686;DHT22;6915;48.296;8.874;2022-07-10T04:43:48;14.10;99.90
13686;DHT22;6915;48.296;8.874;2022-07-10T04:46:15;14.20;99.90
13686;DHT22;6915;48.296;8.874;2022-07-10T04:48:42;14.20;99.90
13686;DHT22;6915;48.296;8.874;2022-07-10T04:51:09;14.20;99.90
13686;DHT22;6915;48.296;8.874;2022-07-10T04:53:36;14.30;99.90
13686;DHT22;6915;48.296;8.874;2022-07-10T04:56:03;14.40;99.90
13686;DHT22;6915;48.296;8.874;2022-07-10T04:58:31;14.40;99.90
13686;DHT22;6915;48.296;8.874;2022-07-10T05:00:59;14.50;99.90
13686;DHT22;6915;48.296;8.874;2022-07-10T05:03:27;14.60;99.90
13686;DHT22;6915;48.296;8.874;2022-07-10T05:05:54;14.60;99.90
13686;DHT22;6915;48.296;8.874;2022-07-10T05:08:21;14.50;99.90
13686;DHT22;6915;48.296;8.874;2022-07-10T05:10:48;14.50;99.90
13686;DHT22;6915;48.296;8.874;2022-07-10T05:13:15;14.50;99.90
13686;DHT22;6915;48.296;8.874;2022-07-10T05:15:42;14.50;99.90
13686;DHT22;6915;48.296;8.874;2022-07-10T05:18:10;14.60;99.90
13686;DHT22;6915;48.296;8.874;2022-07-10T05:20:37;14.60;99.90
13686;DHT22;6915;48.296;8.874;2022-07-10T05:23:07;14.60;99.90
13686;DHT22;6915;48.296;8.874;2022-07-10T05:25:34;14.70;99.90
13686;DHT22;6915;48.296;8.874;2022-07-10T05:28:03;14.70;99.90
13686;DHT22;6915;48.296;8.874;2022-07-10T05:30:30;14.80;99.90
13686;DHT22;6915;48.296;8.874;2022-07-10T05:32:57;14.80;99.90
13686;DHT22;6915;48.296;8.874;2022-07-10T05:35:25;14.80;99.90
13686;DHT22;6915;48.296;8.874;2022-07-10T05:37:53;14.90;99.90
13686;DHT22;6915;48.296;8.874;2022-07-10T05:40:20;15.00;99.90
13686;DHT22;6915;48.296;8.874;2022-07-10T05:42:47;14.80;99.90
13686;DHT22;6915;48.296;8.874;2022-07-10T05:45:14;14.80;99.90
13686;DHT22;6915;48.296;8.874;2022-07-10T05:47:40;14.90;99.90
13686;DHT22;6915;48.296;8.874;2022-07-10T05:50:08;14.90;99.90
13686;DHT22;6915;48.296;8.874;2022-07-10T05:52:37;15.00;99.90
13686;DHT22;6915;48.296;8.874;2022-07-10T05:55:04;15.00;99.90
13686;DHT22;6915;48.296;8.874;2022-07-10T05:57:32;15.00;99.90
13686;DHT22;6915;48.296;8.874;2022-07-10T05:59:59;14.90;99.90
13686;DHT22;6915;48.296;8.874;2022-07-10T06:02:26;15.00;99.90
13686;DHT22;6915;48.296;8.874;2022-07-10T06:04:53;15.00;99.90
13686;DHT22;6915;48.296;8.874;2022-07-10T06:07:20;14.90;99.90
13686;DHT22;6915;48.296;8.874;2022-07-10T06:09:48;15.00;99.90
13686;DHT22;6915;48.296;8.874;2022-07-10T06:12:15;15.00;99.90
13686;DHT22;6915;48.296;8.874;2022-07-10T06:14:42;15.20;99.90
13686;DHT22;6915;48.296;8.874;2022-07-10T06:17:09;15.20;99.90
13686;DHT22;6915;48.296;8.874;2022-07-10T06:19:36;15.20;99.90
13686;DHT22;6915;48.296;8.874;2022-07-10T06:22:03;15.30;99.90
13686;DHT22;6915;48.296;8.874;2022-07-10T06:24:49;15.30;99.90
13686;DHT22;6915;48.296;8.874;2022-07-10T06:27:16;15.30;99.90
13686;DHT22;6915;48.296;8.874;2022-07-10T06:29:43;15.40;99.90
13686;DHT22;6915;48.296;8.874;2022-07-10T06:32:10;15.40;99.90
13686;DHT22;6915;48.296;8.874;2022-07-10T06:34:37;15.40;99.90
13686;DHT22;6915;48.296;8.874;2022-07-10T06:37:04;15.30;99.90
13686;DHT22;6915;48.296;8.874;2022-07-10T06:39:33;15.30;99.90
13686;DHT22;6915;48.296;8.874;2022-07-10T06:42:02;15.30;99.90
13686;DHT22;6915;48.296;8.874;2022-07-10T06:44:29;15.40;99.90
13686;DHT22;6915;48.296;8.874;2022-07-10T06:46:57;15.40;99.90
13686;DHT22;6915;48.296;8.874;2022-07-10T06:49:42;15.30;99.90
13686;DHT22;6915;48.296;8.874;2022-07-10T06:52:09;15.20;99.90
13686;DHT22;6915;48.296;8.874;2022-07-10T06:54:36;15.20;99.90
13686;DHT22;6915;48.296;8.874;2022-07-10T06:57:05;15.20;99.90
13686;DHT22;6915;48.296;8.874;2022-07-10T06:59:32;15.30;99.90
13686;DHT22;6915;48.296;8.874;2022-07-10T07:02:00;15.40;99.90
13686;DHT22;6915;48.296;8.874;2022-07-10T07:04:27;15.50;99.90
13686;DHT22;6915;48.296;8.874;2022-07-10T07:06:54;15.70;99.90
13686;DHT22;6915;48.296;8.874;2022-07-10T07:09:21;15.90;99.90
13686;DHT22;6915;48.296;8.874;2022-07-10T07:11:48;16.00;99.90
13686;DHT22;6915;48.296;8.874;2022-07-10T07:14:16;16.00;99.90
13686;DHT22;6915;48.296;8.874;2022-07-10T07:16:43;16.00;99.90
13686;DHT22;6915;48.296;8.874;2022-07-10T07:19:12;15.90;99.90
13686;DHT22;6915;48.296;8.874;2022-07-10T07:21:43;15.90;99.90
13686;DHT22;6915;48.296;8.874;2022-07-10T07:24:24;16.10;99.90
13686;DHT22;6915;48.296;8.874;2022-07-10T07:26:51;16.10;99.90
13686;DHT22;6915;48.296;8.874;2022-07-10T07:29:19;15.80;99.90
13686;DHT22;6915;48.296;8.874;2022-07-10T07:31:46;15.60;99.90
13686;DHT22;6915;48.296;8.874;2022-07-10T07:34:13;15.60;99.90
13686;DHT22;6915;48.296;8.874;2022-07-10T07:36:40;15.70;99.90
13686;DHT22;6915;48.296;8.874;2022-07-10T07:39:07;15.70;99.90
13686;DHT22;6915;48.296;8.874;2022-07-10T07:41:34;15.80;99.90
13686;DHT22;6915;48.296;8.874;2022-07-10T07:44:01;15.80;99.90
13686;DHT22;6915;48.296;8.874;2022-07-10T07:46:29;16.00;99.90
13686;DHT22;6915;48.296;8.874;2022-07-10T07:48:56;16.00;29.40
13686;DHT22;6915;48.296;8.874;2022-07-10T07:51:24;16.20;13.60
13686;DHT22;6915;48.296;8.874;2022-07-10T07:53:50;16.30;95.60
13686;DHT22;6915;48.296;8.874;2022-07-10T07:56:17;16.20;1.90
13686;DHT22;6915;48.296;8.874;2022-07-10T07:58:44;16.30;1.00
13686;DHT22;6915;48.296;8.874;2022-07-10T08:01:11;16.60;1.00
13686;DHT22;6915;48.296;8.874;2022-07-10T08:03:40;16.70;1.00
13686;DHT22;6915;48.296;8.874;2022-07-10T08:06:07;17.10;1.00
13686;DHT22;6915;48.296;8.874;2022-07-10T08:08:34;17.10;1.00
13686;DHT22;6915;48.296;8.874;2022-07-10T08:11:02;17.40;1.00
13686;DHT22;6915;48.296;8.874;2022-07-10T08:13:28;17.60;1.00
13686;DHT22;6915;48.296;8.874;2022-07-10T08:15:55;17.70;1.00
13686;DHT22;6915;48.296;8.874;2022-07-10T08:18:22;17.90;99.90
13686;DHT22;6915;48.296;8.874;2022-07-10T08:20:51;17.80;1.00
13686;DHT22;6915;48.296;8.874;2022-07-10T08:23:18;18.00;1.00
13686;DHT22;6915;48.296;8.874;2022-07-10T08:25:45;18.20;1.00
13686;DHT22;6915;48.296;8.874;2022-07-10T08:28:12;18.30;99.90
13686;DHT22;6915;48.296;8.874;2022-07-10T08:30:39;18.10;1.00
13686;DHT22;6915;48.296;8.874;2022-07-10T08:33:07;18.10;99.90
13686;DHT22;6915;48.296;8.874;2022-07-10T08:35:37;18.40;1.00
13686;DHT22;6915;48.296;8.874;2022-07-10T08:38:08;18.30;99.90
13686;DHT22;6915;48.296;8.874;2022-07-10T08:40:35;18.40;99.90
13686;DHT22;6915;48.296;8.874;2022-07-10T08:43:03;18.90;99.90
13686;DHT22;6915;48.296;8.874;2022-07-10T08:45:32;19.40;1.00
13686;DHT22;6915;48.296;8.874;2022-07-10T08:48:02;19.50;1.00
13686;DHT22;6915;48.296;8.874;2022-07-10T08:50:32;18.60;99.90
13686;DHT22;6915;48.296;8.874;2022-07-10T08:53:04;18.70;22.70
13686;DHT22;6915;48.296;8.874;2022-07-10T08:55:35;19.40;1.00
13686;DHT22;6915;48.296;8.874;2022-07-10T08:58:03;19.30;99.90
13686;DHT22;6915;48.296;8.874;2022-07-10T09:00:31;18.90;85.40
13686;DHT22;6915;48.296;8.874;2022-07-10T09:02:58;18.70;1.00
13686;DHT22;6915;48.296;8.874;2022-07-10T09:05:26;18.60;1.00
13686;DHT22;6915;48.296;8.874;2022-07-10T09:07:53;18.90;99.90
13686;DHT22;6915;48.296;8.874;2022-07-10T09:10:23;19.10;99.90
13686;DHT22;6915;48.296;8.874;2022-07-10T09:12:53;19.10;99.90
13686;DHT22;6915;48.296;8.874;2022-07-10T09:15:21;19.50;1.00
13686;DHT22;6915;48.296;8.874;2022-07-10T09:17:50;19.50;99.90
13686;DHT22;6915;48.296;8.874;2022-07-10T09:20:32;19.20;1.00
13686;DHT22;6915;48.296;8.874;2022-07-10T09:23:15;18.80;99.90
13686;DHT22;6915;48.296;8.874;2022-07-10T09:25:43;18.50;1.00
13686;DHT22;6915;48.296;8.874;2022-07-10T09:28:12;18.60;1.00
13686;DHT22;6915;48.296;8.874;2022-07-10T09:30:40;18.70;99.90
13686;DHT22;6915;48.296;8.874;2022-07-10T09:33:23;18.80;1.00
13686;DHT22;6915;48.296;8.874;2022-07-10T09:35:56;18.50;99.90
13686;DHT22;6915;48.296;8.874;2022-07-10T09:38:52;18.50;99.90
13686;DHT22;6915;48.296;8.874;2022-07-10T09:41:21;18.40;1.00
13686;DHT22;6915;48.296;8.874;2022-07-10T09:43:51;18.50;1.00
13686;DHT22;6915;48.296;8.874;2022-07-10T09:46:21;18.40;1.00
13686;DHT22;6915;48.296;8.874;2022-07-10T09:49:04;18.60;1.00
13686;DHT22;6915;48.296;8.874;2022-07-10T09:51:33;19.00;1.00
13686;DHT22;6915;48.296;8.874;2022-07-10T09:54:01;19.40;1.00
13686;DHT22;6915;48.296;8.874;2022-07-10T09:56:33;19.50;1.00
13686;DHT22;6915;48.296;8.874;2022-07-10T09:59:10;19.80;1.00
13686;DHT22;6915;48.296;8.874;2022-07-10T10:01:43;19.90;1.00
13686;DHT22;6915;48.296;8.874;2022-07-10T10:04:11;20.20;1.00
13686;DHT22;6915;48.296;8.874;2022-07-10T10:06:40;20.50;1.00
13686;DHT22;6915;48.296;8.874;2022-07-10T10:09:12;20.40;1.00
13686;DHT22;6915;48.296;8.874;2022-07-10T10:11:41;20.60;1.00
13686;DHT22;6915;48.296;8.874;2022-07-10T10:14:12;20.20;1.00
13686;DHT22;6915;48.296;8.874;2022-07-10T10:16:44;20.50;1.00
13686;DHT22;6915;48.296;8.874;2022-07-10T10:19:12;20.70;1.00
13686;DHT22;6915;48.296;8.874;2022-07-10T10:21:59;20.70;99.90
13686;DHT22;6915;48.296;8.874;2022-07-10T10:24:31;20.80;1.00
13686;DHT22;6915;48.296;8.874;2022-07-10T10:26:58;20.50;1.00
13686;DHT22;6915;48.296;8.874;2022-07-10T10:29:27;19.90;1.00
13686;DHT22;6915;48.296;8.874;2022-07-10T10:31:55;19.90;1.00
13686;DHT22;6915;48.296;8.874;2022-07-10T10:34:38;19.70;1.00
13686;DHT22;6915;48.296;8.874;2022-07-10T10:37:07;19.30;99.90
13686;DHT22;6915;48.296;8.874;2022-07-10T10:39:55;19.70;1.00
13686;DHT22;6915;48.296;8.874;2022-07-10T10:42:32;20.10;1.00
13686;DHT22;6915;48.296;8.874;2022-07-10T10:45:24;20.30;98.40
13686;DHT22;6915;48.296;8.874;2022-07-10T10:48:00;20.80;1.00
13686;DHT22;6915;48.296;8.874;2022-07-10T10:50:37;21.00;1.00
13686;DHT22;6915;48.296;8.874;2022-07-10T10:53:12;20.90;1.00
13686;DHT22;6915;48.296;8.874;2022-07-10T10:55:39;20.40;1.00
13686;DHT22;6915;48.296;8.874;2022-07-10T10:58:15;20.40;99.90
13686;DHT22;6915;48.296;8.874;2022-07-10T11:00:45;20.30;1.00
13686;DHT22;6915;48.296;8.874;2022-07-10T11:03:18;20.10;72.70
13686;DHT22;6915;48.296;8.874;2022-07-10T11:05:46;20.30;99.90
13686;DHT22;6915;48.296;8.874;2022-07-10T11:08:14;20.80;1.00
13686;DHT22;6915;48.296;8.874;2022-07-10T11:11:37;21.40;1.00
13686;DHT22;6915;48.296;8.874;2022-07-10T11:14:07;22.00;1.00
13686;DHT22;6915;48.296;8.874;2022-07-10T11:16:38;21.30;1.00
13686;DHT22;6915;48.296;8.874;2022-07-10T11:19:12;21.80;99.90
13686;DHT22;6915;48.296;8.874;2022-07-10T11:21:46;21.50;1.00
13686;DHT22;6915;48.296;8.874;2022-07-10T11:27:09;21.10;99.90
13686;DHT22;6915;48.296;8.874;2022-07-10T11:29:39;20.80;1.00
13686;DHT22;6915;48.296;8.874;2022-07-10T11:32:08;21.10;99.90
13686;DHT22;6915;48.296;8.874;2022-07-10T11:34:35;20.90;99.90
13686;DHT22;6915;48.296;8.874;2022-07-10T11:37:02;21.00;1.00
13686;DHT22;6915;48.296;8.874;2022-07-10T11:39:29;21.00;1.00
13686;DHT22;6915;48.296;8.874;2022-07-10T11:41:56;21.30;1.00
13686;DHT22;6915;48.296;8.874;2022-07-10T11:44:24;21.80;99.90
13686;DHT22;6915;48.296;8.874;2022-07-10T11:46:53;22.00;1.00
13686;DHT22;6915;48.296;8.874;2022-07-10T11:49:23;21.60;1.00
13686;DHT22;6915;48.296;8.874;2022-07-10T11:51:50;21.90;1.00
13686;DHT22;6915;48.296;8.874;2022-07-10T11:54:17;21.70;1.00
13686;DHT22;6915;48.296;8.874;2022-07-10T11:56:47;21.70;1.00
13686;DHT22;6915;48.296;8.874;2022-07-10T11:59:15;21.30;47.30
13686;DHT22;6915;48.296;8.874;2022-07-10T12:01:44;21.20;99.90
13686;DHT22;6915;48.296;8.874;2022-07-10T12:04:13;21.40;1.00
13686;DHT22;6915;48.296;8.874;2022-07-10T12:06:43;21.30;99.90
13686;DHT22;6915;48.296;8.874;2022-07-10T12:09:11;21.30;99.90
13686;DHT22;6915;48.296;8.874;2022-07-10T12:11:39;21.60;1.00
13686;DHT22;6915;48.296;8.874;2022-07-10T12:14:12;21.70;80.40
13686;DHT22;6915;48.296;8.874;2022-07-10T12:16:40;21.80;1.00
13686;DHT22;6915;48.296;8.874;2022-07-10T12:19:08;22.10;1.00
13686;DHT22;6915;48.296;8.874;2022-07-10T12:21:36;22.20;1.00
13686;DHT22;6915;48.296;8.874;2022-07-10T12:24:05;22.10;1.00
13686;DHT22;6915;48.296;8.874;2022-07-10T12:26:33;21.60;99.90
13686;DHT22;6915;48.296;8.874;2022-07-10T12:29:02;22.00;99.90
13686;DHT22;6915;48.296;8.874;2022-07-10T12:31:30;22.10;1.00
13686;DHT22;6915;48.296;8.874;2022-07-10T12:33:59;22.10;1.00
13686;DHT22;6915;48.296;8.874;2022-07-10T12:36:42;22.10;1.00
13686;DHT22;6915;48.296;8.874;2022-07-10T12:39:11;21.80;1.00
13686;DHT22;6915;48.296;8.874;2022-07-10T12:41:58;22.00;99.90
13686;DHT22;6915;48.296;8.874;2022-07-10T12:44:36;21.70;1.00
13686;DHT22;6915;48.296;8.874;2022-07-10T12:47:04;21.70;98.80
13686;DHT22;6915;48.296;8.874;2022-07-10T12:49:51;21.70;1.00
13686;DHT22;6915;48.296;8.874;2022-07-10T12:52:22;21.70;1.00
13686;DHT22;6915;48.296;8.874;2022-07-10T12:55:05;22.20;1.00
13686;DHT22;6915;48.296;8.874;2022-07-10T12:57:32;22.10;1.00
13686;DHT22;6915;48.296;8.874;2022-07-10T13:00:03;21.80;1.00
13686;DHT22;6915;48.296;8.874;2022-07-10T13:02:31;21.60;1.00
13686;DHT22;6915;48.296;8.874;2022-07-10T13:04:58;21.50;1.00
13686;DHT22;6915;48.296;8.874;2022-07-10T13:07:31;21.60;1.00
13686;DHT22;6915;48.296;8.874;2022-07-10T13:10:01;21.80;1.00
13686;DHT22;6915;48.296;8.874;2022-07-10T13:12:29;22.20;1.00
13686;DHT22;6915;48.296;8.874;2022-07-10T13:14:56;22.30;1.00
13686;DHT22;6915;48.296;8.874;2022-07-10T13:17:23;22.50;1.00
13686;DHT22;6915;48.296;8.874;2022-07-10T13:19:50;22.60;1.00
13686;DHT22;6915;48.296;8.874;2022-07-10T13:22:17;22.40;99.90
13686;DHT22;6915;48.296;8.874;2022-07-10T13:24:44;22.10;1.00
13686;DHT22;6915;48.296;8.874;2022-07-10T13:27:13;22.00;1.00
13686;DHT22;6915;48.296;8.874;2022-07-10T13:29:40;22.10;1.00
13686;DHT22;6915;48.296;8.874;2022-07-10T13:32:07;22.40;1.00
13686;DHT22;6915;48.296;8.874;2022-07-10T13:34:35;22.30;1.00
13686;DHT22;6915;48.296;8.874;2022-07-10T13:37:02;22.30;99.90
13686;DHT22;6915;48.296;8.874;2022-07-10T13:39:32;21.90;99.90
13686;DHT22;6915;48.296;8.874;2022-07-10T13:41:59;21.70;1.00
13686;DHT22;6915;48.296;8.874;2022-07-10T13:44:27;21.10;1.00
13686;DHT22;6915;48.296;8.874;2022-07-10T13:46:54;20.90;1.00
13686;DHT22;6915;48.296;8.874;2022-07-10T13:49:21;21.40;1.00
13686;DHT22;6915;48.296;8.874;2022-07-10T13:51:48;21.50;1.00
13686;DHT22;6915;48.296;8.874;2022-07-10T13:54:15;21.80;1.00
13686;DHT22;6915;48.296;8.874;2022-07-10T13:56:42;21.70;1.00
13686;DHT22;6915;48.296;8.874;2022-07-10T13:59:09;21.80;1.00
13686;DHT22;6915;48.296;8.874;2022-07-10T14:01:37;22.20;99.90
13686;DHT22;6915;48.296;8.874;2022-07-10T14:04:04;22.20;99.90
13686;DHT22;6915;48.296;8.874;2022-07-10T14:06:32;22.10;99.90
13686;DHT22;6915;48.296;8.874;2022-07-10T14:08:59;22.00;99.90
13686;DHT22;6915;48.296;8.874;2022-07-10T14:11:26;22.00;99.90
13686;DHT22;6915;48.296;8.874;2022-07-10T14:13:54;21.60;99.90
13686;DHT22;6915;48.296;8.874;2022-07-10T14:16:21;21.80;99.90
13686;DHT22;6915;48.296;8.874;2022-07-10T14:18:49;21.90;99.90
13686;DHT22;6915;48.296;8.874;2022-07-10T14:21:16;21.50;99.90
13686;DHT22;6915;48.296;8.874;2022-07-10T14:23:44;21.20;99.90
13686;DHT22;6915;48.296;8.874;2022-07-10T14:26:11;21.30;99.90
13686;DHT22;6915;48.296;8.874;2022-07-10T14:28:38;21.60;99.90
13686;DHT22;6915;48.296;8.874;2022-07-10T14:31:05;21.60;99.90
13686;DHT22;6915;48.296;8.874;2022-07-10T14:33:33;21.70;99.90
13686;DHT22;6915;48.296;8.874;2022-07-10T14:36:03;21.70;99.90
13686;DHT22;6915;48.296;8.874;2022-07-10T14:38:30;21.80;99.90
13686;DHT22;6915;48.296;8.874;2022-07-10T14:40:57;21.80;91.10
13686;DHT22;6915;48.296;8.874;2022-07-10T14:43:24;21.70;94.00
13686;DHT22;6915;48.296;8.874;2022-07-10T14:45:51;21.50;99.90
13686;DHT22;6915;48.296;8.874;2022-07-10T14:48:18;21.60;95.80
13686;DHT22;6915;48.296;8.874;2022-07-10T14:50:45;21.50;99.90
13686;DHT22;6915;48.296;8.874;2022-07-10T14:53:13;21.30;97.60
13686;DHT22;6915;48.296;8.874;2022-07-10T14:55:40;21.30;99.90
13686;DHT22;6915;48.296;8.874;2022-07-10T14:58:07;21.30;93.30
13686;DHT22;6915;48.296;8.874;2022-07-10T15:00:34;21.10;99.90
13686;DHT22;6915;48.296;8.874;2022-07-10T15:03:02;21.20;99.90
13686;DHT22;6915;48.296;8.874;2022-07-10T15:05:29;21.20;99.90
13686;DHT22;6915;48.296;8.874;2022-07-10T15:07:56;21.10;99.90
13686;DHT22;6915;48.296;8.874;2022-07-10T15:10:24;20.90;38.20
13686;DHT22;6915;48.296;8.874;2022-07-10T15:12:51;20.90;34.20
13686;DHT22;6915;48.296;8.874;2022-07-10T15:15:18;20.90;85.50
13686;DHT22;6915;48.296;8.874;2022-07-10T15:17:45;21.00;86.40
13686;DHT22;6915;48.296;8.874;2022-07-10T15:20:13;21.00;99.90
13686;DHT22;6915;48.296;8.874;2022-07-10T15:22:40;20.70;25.70
13686;DHT22;6915;48.296;8.874;2022-07-10T15:25:08;20.90;97.80
13686;DHT22;6915;48.296;8.874;2022-07-10T15:27:36;20.70;42.10
13686;DHT22;6915;48.296;8.874;2022-07-10T15:30:05;20.70;66.40
13686;DHT22;6915;48.296;8.874;2022-07-10T15:32:32;20.80;54.50
13686;DHT22;6915;48.296;8.874;2022-07-10T15:34:59;21.20;18.20
13686;DHT22;6915;48.296;8.874;2022-07-10T15:37:26;21.40;22.50
13686;DHT22;6915;48.296;8.874;2022-07-10T15:39:54;21.10;18.60
13686;DHT22;6915;48.296;8.874;2022-07-10T15:42:21;21.10;15.70
13686;DHT22;6915;48.296;8.874;2022-07-10T15:44:49;20.80;8.70
13686;DHT22;6915;48.296;8.874;2022-07-10T15:47:16;20.90;11.60
13686;DHT22;6915;48.296;8.874;2022-07-10T15:49:43;20.90;20.90
13686;DHT22;6915;48.296;8.874;2022-07-10T15:52:10;20.70;40.80
13686;DHT22;6915;48.296;8.874;2022-07-10T15:54:37;20.60;41.50
13686;DHT22;6915;48.296;8.874;2022-07-10T15:57:05;20.50;83.40
13686;DHT22;6915;48.296;8.874;2022-07-10T15:59:32;20.50;99.90
13686;DHT22;6915;48.296;8.874;2022-07-10T16:02:02;20.40;99.90
13686;DHT22;6915;48.296;8.874;2022-07-10T16:04:29;20.50;99.90